sensor_id;sensor_type;location;lat;lon;timestamp;P1;durP1;ratioP1;P2;durP2;ratioP2
38935;SDS011;66589;47.458;9.644;2023-03-01T00:01:59;17.40;;;7.88;;
38935;SDS011;66589;47.458;9.644;2023-03-01T00:04:25;18.63;;;8.02;;
38935;SDS011;66589;47.458;9.644;2023-03-01T00:06:52;17.15;;;7.05;;
38935;SDS011;66589;47.458;9.644;2023-03-01T00:09:18;16.30;;;7.40;;
38935;SDS011;66589;47.458;9.644;2023-03-01T00:11:44;20.05;;;7.75;;
38935;SDS011;66589;47.458;9.644;2023-03-01T00:14:10;16.90;;;7.72;;
38935;SDS011;66589;47.458;9.644;2023-03-01T00:16:37;16.38;;;7.82;;
38935;SDS011;66589;47.458;9.644;2023-03-01T00:19:04;16.25;;;7.70;;
38935;SDS011;66589;47.458;9.644;2023-03-01T00:21:31;15.35;;;7.45;;
38935;SDS011;66589;47.458;9.644;2023-03-01T00:23:57;17.90;;;7.63;;
38935;SDS011;66589;47.458;9.644;2023-03-01T00:26:23;18.35;;;8.50;;
38935;SDS011;66589;47.458;9.644;2023-03-01T00:28:51;16.90;;;7.75;;
38935;SDS011;66589;47.458;9.644;2023-03-01T00:31:18;16.35;;;7.03;;
38935;SDS011;66589;47.458;9.644;2023-03-01T00:33:46;15.20;;;6.57;;
38935;SDS011;66589;47.458;9.644;2023-03-01T00:36:12;14.93;;;6.90;;
38935;SDS011;66589;47.458;9.644;2023-03-01T00:38:40;14.95;;;6.90;;
38935;SDS011;66589;47.458;9.644;2023-03-01T00:41:08;13.88;;;6.68;;
38935;SDS011;66589;47.458;9.644;2023-03-01T00:43:35;16.20;;;6.50;;
38935;SDS011;66589;47.458;9.644;2023-03-01T00:46:04;14.77;;;6.40;;
38935;SDS011;66589;47.458;9.644;2023-03-01T00:48:33;14.95;;;7.00;;
38935;SDS011;66589;47.458;9.644;2023-03-01T00:51:06;15.13;;;6.88;;
38935;SDS011;66589;47.458;9.644;2023-03-01T00:53:33;16.25;;;6.88;;
38935;SDS011;66589;47.458;9.644;2023-03-01T00:55:59;16.60;;;6.72;;
38935;SDS011;66589;47.458;9.644;2023-03-01T00:58:25;16.75;;;6.88;;
38935;SDS011;66589;47.458;9.644;2023-03-01T01:00:51;16.80;;;6.63;;
38935;SDS011;66589;47.458;9.644;2023-03-01T01:03:17;14.60;;;6.72;;
38935;SDS011;66589;47.458;9.644;2023-03-01T01:05:43;13.73;;;6.60;;
38935;SDS011;66589;47.458;9.644;2023-03-01T01:08:09;14.50;;;6.43;;
38935;SDS011;66589;47.458;9.644;2023-03-01T01:10:35;14.18;;;6.60;;
38935;SDS011;66589;47.458;9.644;2023-03-01T01:13:01;16.25;;;6.85;;
38935;SDS011;66589;47.458;9.644;2023-03-01T01:15:26;16.35;;;7.05;;
38935;SDS011;66589;47.458;9.644;2023-03-01T01:17:52;14.60;;;6.55;;
38935;SDS011;66589;47.458;9.644;2023-03-01T01:20:18;13.57;;;6.38;;
38935;SDS011;66589;47.458;9.644;2023-03-01T01:22:44;13.32;;;6.25;;
38935;SDS011;66589;47.458;9.644;2023-03-01T01:25:09;15.43;;;6.57;;
38935;SDS011;66589;47.458;9.644;2023-03-01T01:27:35;15.68;;;6.75;;
38935;SDS011;66589;47.458;9.644;2023-03-01T01:30:02;14.90;;;6.78;;
38935;SDS011;66589;47.458;9.644;2023-03-01T01:32:28;13.60;;;6.43;;
38935;SDS011;66589;47.458;9.644;2023-03-01T01:34:54;14.23;;;6.10;;
38935;SDS011;66589;47.458;9.644;2023-03-01T01:37:20;15.27;;;6.65;;
38935;SDS011;66589;47.458;9.644;2023-03-01T01:39:46;15.07;;;6.65;;
38935;SDS011;66589;47.458;9.644;2023-03-01T01:42:15;16.10;;;6.55;;
38935;SDS011;66589;47.458;9.644;2023-03-01T01:44:42;14.18;;;6.70;;
38935;SDS011;66589;47.458;9.644;2023-03-01T01:47:14;14.80;;;6.80;;
38935;SDS011;66589;47.458;9.644;2023-03-01T01:49:51;15.98;;;7.00;;
38935;SDS011;66589;47.458;9.644;2023-03-01T01:52:27;14.60;;;6.85;;
38935;SDS011;66589;47.458;9.644;2023-03-01T01:57:30;13.75;;;6.30;;
38935;SDS011;66589;47.458;9.644;2023-03-01T02:00:18;15.40;;;7.20;;
38935;SDS011;66589;47.458;9.644;2023-03-01T02:02:47;15.25;;;6.85;;
38935;SDS011;66589;47.458;9.644;2023-03-01T02:08:13;15.80;;;6.72;;
38935;SDS011;66589;47.458;9.644;2023-03-01T02:10:40;14.13;;;6.45;;
38935;SDS011;66589;47.458;9.644;2023-03-01T02:13:07;13.10;;;6.22;;
38935;SDS011;66589;47.458;9.644;2023-03-01T02:15:33;14.02;;;6.20;;
38935;SDS011;66589;47.458;9.644;2023-03-01T02:18:01;13.93;;;6.55;;
38935;SDS011;66589;47.458;9.644;2023-03-01T02:20:36;13.63;;;6.22;;
38935;SDS011;66589;47.458;9.644;2023-03-01T02:23:13;13.98;;;6.53;;
38935;SDS011;66589;47.458;9.644;2023-03-01T02:28:45;13.48;;;6.38;;
38935;SDS011;66589;47.458;9.644;2023-03-01T02:31:16;13.18;;;6.20;;
38935;SDS011;66589;47.458;9.644;2023-03-01T02:34:02;13.75;;;6.47;;
38935;SDS011;66589;47.458;9.644;2023-03-01T02:36:35;15.63;;;6.78;;
38935;SDS011;66589;47.458;9.644;2023-03-01T02:39:04;14.13;;;6.60;;
38935;SDS011;66589;47.458;9.644;2023-03-01T02:41:34;16.02;;;6.80;;
38935;SDS011;66589;47.458;9.644;2023-03-01T02:44:02;13.90;;;6.53;;
38935;SDS011;66589;47.458;9.644;2023-03-01T02:46:28;14.98;;;6.25;;
38935;SDS011;66589;47.458;9.644;2023-03-01T02:48:57;14.45;;;6.53;;
38935;SDS011;66589;47.458;9.644;2023-03-01T02:56:32;13.60;;;6.40;;
38935;SDS011;66589;47.458;9.644;2023-03-01T02:58:58;13.63;;;6.55;;
38935;SDS011;66589;47.458;9.644;2023-03-01T03:01:26;15.85;;;6.55;;
38935;SDS011;66589;47.458;9.644;2023-03-01T03:04:02;15.02;;;6.55;;
38935;SDS011;66589;47.458;9.644;2023-03-01T03:06:28;15.30;;;6.75;;
38935;SDS011;66589;47.458;9.644;2023-03-01T03:08:54;15.90;;;6.68;;
38935;SDS011;66589;47.458;9.644;2023-03-01T03:11:20;15.95;;;6.63;;
38935;SDS011;66589;47.458;9.644;2023-03-01T03:13:45;15.85;;;6.50;;
38935;SDS011;66589;47.458;9.644;2023-03-01T03:16:13;17.20;;;7.28;;
38935;SDS011;66589;47.458;9.644;2023-03-01T03:18:39;17.08;;;7.03;;
38935;SDS011;66589;47.458;9.644;2023-03-01T03:21:08;15.73;;;7.22;;
38935;SDS011;66589;47.458;9.644;2023-03-01T03:23:36;16.42;;;7.10;;
38935;SDS011;66589;47.458;9.644;2023-03-01T03:26:03;15.70;;;6.57;;
38935;SDS011;66589;47.458;9.644;2023-03-01T03:28:29;15.93;;;6.68;;
38935;SDS011;66589;47.458;9.644;2023-03-01T03:30:56;15.50;;;7.07;;
38935;SDS011;66589;47.458;9.644;2023-03-01T03:33:21;16.27;;;7.00;;
38935;SDS011;66589;47.458;9.644;2023-03-01T03:35:48;19.00;;;6.93;;
38935;SDS011;66589;47.458;9.644;2023-03-01T03:38:15;14.75;;;5.93;;
38935;SDS011;66589;47.458;9.644;2023-03-01T03:41:17;14.82;;;6.57;;
38935;SDS011;66589;47.458;9.644;2023-03-01T03:43:37;14.05;;;6.10;;
38935;SDS011;66589;47.458;9.644;2023-03-01T03:46:03;14.52;;;6.65;;
38935;SDS011;66589;47.458;9.644;2023-03-01T03:48:43;15.48;;;6.93;;
38935;SDS011;66589;47.458;9.644;2023-03-01T03:51:13;13.85;;;6.28;;
38935;SDS011;66589;47.458;9.644;2023-03-01T03:53:40;15.10;;;6.60;;
38935;SDS011;66589;47.458;9.644;2023-03-01T03:56:07;15.98;;;7.15;;
38935;SDS011;66589;47.458;9.644;2023-03-01T03:58:32;16.17;;;7.20;;
38935;SDS011;66589;47.458;9.644;2023-03-01T04:00:58;14.40;;;6.60;;
38935;SDS011;66589;47.458;9.644;2023-03-01T04:03:26;18.10;;;7.20;;
38935;SDS011;66589;47.458;9.644;2023-03-01T04:05:52;15.85;;;7.13;;
38935;SDS011;66589;47.458;9.644;2023-03-01T04:08:19;15.23;;;6.75;;
38935;SDS011;66589;47.458;9.644;2023-03-01T04:10:47;18.42;;;7.50;;
38935;SDS011;66589;47.458;9.644;2023-03-01T04:13:15;18.25;;;7.32;;
38935;SDS011;66589;47.458;9.644;2023-03-01T04:15:44;15.05;;;7.07;;
38935;SDS011;66589;47.458;9.644;2023-03-01T04:18:11;16.10;;;7.00;;
38935;SDS011;66589;47.458;9.644;2023-03-01T04:20:38;17.02;;;7.00;;
38935;SDS011;66589;47.458;9.644;2023-03-01T04:23:08;15.60;;;6.45;;
38935;SDS011;66589;47.458;9.644;2023-03-01T04:25:42;15.35;;;6.53;;
38935;SDS011;66589;47.458;9.644;2023-03-01T04:28:11;16.42;;;6.93;;
38935;SDS011;66589;47.458;9.644;2023-03-01T04:30:37;15.18;;;7.15;;
38935;SDS011;66589;47.458;9.644;2023-03-01T04:33:04;16.40;;;7.10;;
38935;SDS011;66589;47.458;9.644;2023-03-01T04:35:32;16.63;;;7.28;;
38935;SDS011;66589;47.458;9.644;2023-03-01T04:37:58;17.55;;;7.40;;
38935;SDS011;66589;47.458;9.644;2023-03-01T04:40:24;14.43;;;6.65;;
38935;SDS011;66589;47.458;9.644;2023-03-01T04:42:50;16.02;;;7.22;;
38935;SDS011;66589;47.458;9.644;2023-03-01T04:45:15;15.70;;;6.82;;
38935;SDS011;66589;47.458;9.644;2023-03-01T04:47:42;15.35;;;6.85;;
38935;SDS011;66589;47.458;9.644;2023-03-01T04:50:10;15.75;;;6.40;;
38935;SDS011;66589;47.458;9.644;2023-03-01T04:52:37;14.85;;;6.43;;
38935;SDS011;66589;47.458;9.644;2023-03-01T04:55:03;17.00;;;6.20;;
38935;SDS011;66589;47.458;9.644;2023-03-01T04:57:29;14.25;;;6.40;;
38935;SDS011;66589;47.458;9.644;2023-03-01T04:59:55;13.93;;;5.93;;
38935;SDS011;66589;47.458;9.644;2023-03-01T05:02:21;13.05;;;5.82;;
38935;SDS011;66589;47.458;9.644;2023-03-01T05:04:46;14.20;;;5.75;;
38935;SDS011;66589;47.458;9.644;2023-03-01T05:07:12;14.75;;;5.97;;
38935;SDS011;66589;47.458;9.644;2023-03-01T05:09:44;13.30;;;5.97;;
38935;SDS011;66589;47.458;9.644;2023-03-01T05:12:11;16.30;;;6.20;;
38935;SDS011;66589;47.458;9.644;2023-03-01T05:14:37;16.33;;;6.10;;
38935;SDS011;66589;47.458;9.644;2023-03-01T05:17:04;13.25;;;5.72;;
38935;SDS011;66589;47.458;9.644;2023-03-01T05:19:30;13.35;;;6.20;;
38935;SDS011;66589;47.458;9.644;2023-03-01T05:21:56;17.63;;;6.20;;
38935;SDS011;66589;47.458;9.644;2023-03-01T05:24:32;14.75;;;6.45;;
38935;SDS011;66589;47.458;9.644;2023-03-01T05:26:59;14.15;;;6.55;;
38935;SDS011;66589;47.458;9.644;2023-03-01T05:29:26;14.27;;;6.28;;
38935;SDS011;66589;47.458;9.644;2023-03-01T05:31:54;14.52;;;6.57;;
38935;SDS011;66589;47.458;9.644;2023-03-01T05:34:26;16.00;;;6.80;;
38935;SDS011;66589;47.458;9.644;2023-03-01T05:36:57;14.98;;;6.30;;
38935;SDS011;66589;47.458;9.644;2023-03-01T05:39:24;15.75;;;5.72;;
38935;SDS011;66589;47.458;9.644;2023-03-01T05:41:51;14.15;;;6.25;;
38935;SDS011;66589;47.458;9.644;2023-03-01T05:44:18;13.00;;;5.53;;
38935;SDS011;66589;47.458;9.644;2023-03-01T05:46:44;12.88;;;5.50;;
38935;SDS011;66589;47.458;9.644;2023-03-01T05:49:10;15.02;;;5.55;;
38935;SDS011;66589;47.458;9.644;2023-03-01T05:51:38;14.65;;;5.95;;
38935;SDS011;66589;47.458;9.644;2023-03-01T05:54:04;13.02;;;5.65;;
38935;SDS011;66589;47.458;9.644;2023-03-01T05:56:32;12.55;;;5.55;;
38935;SDS011;66589;47.458;9.644;2023-03-01T05:58:59;14.25;;;6.07;;
38935;SDS011;66589;47.458;9.644;2023-03-01T06:01:25;13.88;;;5.85;;
38935;SDS011;66589;47.458;9.644;2023-03-01T06:03:51;13.98;;;5.75;;
38935;SDS011;66589;47.458;9.644;2023-03-01T06:06:16;13.70;;;6.10;;
38935;SDS011;66589;47.458;9.644;2023-03-01T06:08:42;16.40;;;6.13;;
38935;SDS011;66589;47.458;9.644;2023-03-01T06:11:08;14.10;;;6.05;;
38935;SDS011;66589;47.458;9.644;2023-03-01T06:13:33;11.85;;;5.38;;
38935;SDS011;66589;47.458;9.644;2023-03-01T06:15:59;13.95;;;5.90;;
38935;SDS011;66589;47.458;9.644;2023-03-01T06:18:25;14.18;;;6.00;;
38935;SDS011;66589;47.458;9.644;2023-03-01T06:20:53;14.18;;;5.25;;
38935;SDS011;66589;47.458;9.644;2023-03-01T06:23:20;14.40;;;5.85;;
38935;SDS011;66589;47.458;9.644;2023-03-01T06:25:46;13.82;;;5.90;;
38935;SDS011;66589;47.458;9.644;2023-03-01T06:28:12;13.98;;;5.57;;
38935;SDS011;66589;47.458;9.644;2023-03-01T06:30:38;14.32;;;6.25;;
38935;SDS011;66589;47.458;9.644;2023-03-01T06:33:03;13.80;;;6.10;;
38935;SDS011;66589;47.458;9.644;2023-03-01T06:35:29;13.85;;;6.50;;
38935;SDS011;66589;47.458;9.644;2023-03-01T06:37:56;14.90;;;5.88;;
38935;SDS011;66589;47.458;9.644;2023-03-01T06:40:23;21.52;;;8.50;;
38935;SDS011;66589;47.458;9.644;2023-03-01T06:42:49;17.08;;;6.80;;
38935;SDS011;66589;47.458;9.644;2023-03-01T06:45:16;15.38;;;6.13;;
38935;SDS011;66589;47.458;9.644;2023-03-01T06:47:43;13.45;;;6.10;;
38935;SDS011;66589;47.458;9.644;2023-03-01T06:50:09;14.85;;;5.82;;
38935;SDS011;66589;47.458;9.644;2023-03-01T06:52:35;17.30;;;6.70;;
38935;SDS011;66589;47.458;9.644;2023-03-01T06:55:01;12.50;;;6.03;;
38935;SDS011;66589;47.458;9.644;2023-03-01T06:57:27;15.50;;;5.97;;
38935;SDS011;66589;47.458;9.644;2023-03-01T06:59:53;15.05;;;5.70;;
38935;SDS011;66589;47.458;9.644;2023-03-01T07:02:19;17.27;;;5.80;;
38935;SDS011;66589;47.458;9.644;2023-03-01T07:04:45;18.17;;;6.32;;
38935;SDS011;66589;47.458;9.644;2023-03-01T07:07:10;20.08;;;5.70;;
38935;SDS011;66589;47.458;9.644;2023-03-01T07:09:36;16.48;;;6.35;;
38935;SDS011;66589;47.458;9.644;2023-03-01T07:12:02;16.63;;;6.45;;
38935;SDS011;66589;47.458;9.644;2023-03-01T07:14:28;14.57;;;6.45;;
38935;SDS011;66589;47.458;9.644;2023-03-01T07:16:54;13.93;;;6.00;;
38935;SDS011;66589;47.458;9.644;2023-03-01T07:19:20;13.60;;;5.95;;
38935;SDS011;66589;47.458;9.644;2023-03-01T07:21:46;12.43;;;5.57;;
38935;SDS011;66589;47.458;9.644;2023-03-01T07:24:12;14.38;;;6.10;;
38935;SDS011;66589;47.458;9.644;2023-03-01T07:26:38;13.45;;;5.72;;
38935;SDS011;66589;47.458;9.644;2023-03-01T07:29:04;13.77;;;6.15;;
38935;SDS011;66589;47.458;9.644;2023-03-01T07:31:31;16.30;;;5.90;;
38935;SDS011;66589;47.458;9.644;2023-03-01T07:33:57;14.50;;;5.50;;
38935;SDS011;66589;47.458;9.644;2023-03-01T07:36:23;21.15;;;5.60;;
38935;SDS011;66589;47.458;9.644;2023-03-01T07:38:49;15.52;;;5.82;;
38935;SDS011;66589;47.458;9.644;2023-03-01T07:41:15;17.05;;;5.57;;
38935;SDS011;66589;47.458;9.644;2023-03-01T07:43:41;18.92;;;5.57;;
38935;SDS011;66589;47.458;9.644;2023-03-01T07:46:06;14.32;;;5.63;;
38935;SDS011;66589;47.458;9.644;2023-03-01T07:48:32;15.88;;;5.90;;
38935;SDS011;66589;47.458;9.644;2023-03-01T07:50:59;14.43;;;5.75;;
38935;SDS011;66589;47.458;9.644;2023-03-01T07:53:29;13.02;;;5.72;;
38935;SDS011;66589;47.458;9.644;2023-03-01T07:56:09;13.98;;;6.00;;
38935;SDS011;66589;47.458;9.644;2023-03-01T07:58:37;12.25;;;5.15;;
38935;SDS011;66589;47.458;9.644;2023-03-01T08:01:07;10.70;;;5.07;;
38935;SDS011;66589;47.458;9.644;2023-03-01T08:03:35;13.85;;;6.32;;
38935;SDS011;66589;47.458;9.644;2023-03-01T08:06:02;15.43;;;5.78;;
38935;SDS011;66589;47.458;9.644;2023-03-01T08:08:29;13.55;;;6.03;;
38935;SDS011;66589;47.458;9.644;2023-03-01T08:10:56;15.15;;;6.07;;
38935;SDS011;66589;47.458;9.644;2023-03-01T08:13:22;13.50;;;5.90;;
38935;SDS011;66589;47.458;9.644;2023-03-01T08:15:48;13.85;;;5.97;;
38935;SDS011;66589;47.458;9.644;2023-03-01T08:18:18;15.70;;;6.00;;
38935;SDS011;66589;47.458;9.644;2023-03-01T08:20:45;16.63;;;5.75;;
38935;SDS011;66589;47.458;9.644;2023-03-01T08:23:10;12.55;;;6.07;;
38935;SDS011;66589;47.458;9.644;2023-03-01T08:25:37;14.43;;;5.88;;
38935;SDS011;66589;47.458;9.644;2023-03-01T08:28:03;19.85;;;7.90;;
38935;SDS011;66589;47.458;9.644;2023-03-01T08:30:29;14.38;;;6.32;;
38935;SDS011;66589;47.458;9.644;2023-03-01T08:32:55;14.45;;;6.03;;
38935;SDS011;66589;47.458;9.644;2023-03-01T08:35:20;15.18;;;6.38;;
38935;SDS011;66589;47.458;9.644;2023-03-01T08:37:46;15.15;;;6.70;;
38935;SDS011;66589;47.458;9.644;2023-03-01T08:40:12;15.98;;;6.72;;
38935;SDS011;66589;47.458;9.644;2023-03-01T08:42:39;14.68;;;6.38;;
38935;SDS011;66589;47.458;9.644;2023-03-01T08:45:06;18.00;;;6.30;;
38935;SDS011;66589;47.458;9.644;2023-03-01T08:47:32;12.85;;;6.15;;
38935;SDS011;66589;47.458;9.644;2023-03-01T08:49:58;19.50;;;6.85;;
38935;SDS011;66589;47.458;9.644;2023-03-01T08:52:24;12.15;;;5.65;;
38935;SDS011;66589;47.458;9.644;2023-03-01T08:54:51;13.85;;;6.10;;
38935;SDS011;66589;47.458;9.644;2023-03-01T08:57:17;13.43;;;5.95;;
38935;SDS011;66589;47.458;9.644;2023-03-01T08:59:43;14.13;;;5.88;;
38935;SDS011;66589;47.458;9.644;2023-03-01T09:02:13;17.13;;;6.50;;
38935;SDS011;66589;47.458;9.644;2023-03-01T09:04:40;48.30;;;7.53;;
38935;SDS011;66589;47.458;9.644;2023-03-01T09:07:06;20.17;;;6.10;;
38935;SDS011;66589;47.458;9.644;2023-03-01T09:09:32;13.27;;;5.55;;
38935;SDS011;66589;47.458;9.644;2023-03-01T09:11:58;12.85;;;6.32;;
38935;SDS011;66589;47.458;9.644;2023-03-01T09:14:24;14.93;;;6.25;;
38935;SDS011;66589;47.458;9.644;2023-03-01T09:16:49;15.00;;;6.30;;
38935;SDS011;66589;47.458;9.644;2023-03-01T09:19:15;11.20;;;5.45;;
38935;SDS011;66589;47.458;9.644;2023-03-01T09:21:41;13.88;;;5.60;;
38935;SDS011;66589;47.458;9.644;2023-03-01T09:24:17;14.13;;;6.03;;
38935;SDS011;66589;47.458;9.644;2023-03-01T09:26:45;13.07;;;6.07;;
38935;SDS011;66589;47.458;9.644;2023-03-01T09:29:11;13.80;;;6.32;;
38935;SDS011;66589;47.458;9.644;2023-03-01T09:31:38;12.65;;;5.97;;
38935;SDS011;66589;47.458;9.644;2023-03-01T09:34:04;12.77;;;5.93;;
38935;SDS011;66589;47.458;9.644;2023-03-01T09:36:30;14.90;;;6.88;;
38935;SDS011;66589;47.458;9.644;2023-03-01T09:38:57;15.27;;;6.35;;
38935;SDS011;66589;47.458;9.644;2023-03-01T09:44:25;18.70;;;6.15;;
38935;SDS011;66589;47.458;9.644;2023-03-01T09:46:52;14.38;;;6.00;;
38935;SDS011;66589;47.458;9.644;2023-03-01T09:49:19;13.50;;;5.65;;
38935;SDS011;66589;47.458;9.644;2023-03-01T09:54:26;13.45;;;6.18;;
38935;SDS011;66589;47.458;9.644;2023-03-01T09:56:56;14.85;;;6.47;;
38935;SDS011;66589;47.458;9.644;2023-03-01T10:05:12;13.00;;;6.30;;
38935;SDS011;66589;47.458;9.644;2023-03-01T10:07:54;13.20;;;5.97;;
38935;SDS011;66589;47.458;9.644;2023-03-01T10:12:56;22.85;;;6.90;;
38935;SDS011;66589;47.458;9.644;2023-03-01T10:15:34;12.15;;;6.28;;
38935;SDS011;66589;47.458;9.644;2023-03-01T10:18:06;11.38;;;5.88;;
38935;SDS011;66589;47.458;9.644;2023-03-01T10:20:57;72.88;;;8.45;;
38935;SDS011;66589;47.458;9.644;2023-03-01T10:23:24;13.52;;;6.38;;
38935;SDS011;66589;47.458;9.644;2023-03-01T10:31:15;16.25;;;6.03;;
38935;SDS011;66589;47.458;9.644;2023-03-01T10:33:47;10.98;;;5.25;;
38935;SDS011;66589;47.458;9.644;2023-03-01T10:36:16;36.15;;;7.32;;
38935;SDS011;66589;47.458;9.644;2023-03-01T10:38:55;12.18;;;6.25;;
38935;SDS011;66589;47.458;9.644;2023-03-01T10:41:23;26.02;;;6.82;;
38935;SDS011;66589;47.458;9.644;2023-03-01T10:43:51;10.43;;;5.57;;
38935;SDS011;66589;47.458;9.644;2023-03-01T10:46:26;12.57;;;6.15;;
38935;SDS011;66589;47.458;9.644;2023-03-01T10:51:47;14.02;;;6.38;;
38935;SDS011;66589;47.458;9.644;2023-03-01T10:54:33;14.38;;;6.68;;
38935;SDS011;66589;47.458;9.644;2023-03-01T10:57:00;15.00;;;6.68;;
38935;SDS011;66589;47.458;9.644;2023-03-01T11:02:07;14.05;;;6.82;;
38935;SDS011;66589;47.458;9.644;2023-03-01T11:07:23;14.27;;;6.85;;
38935;SDS011;66589;47.458;9.644;2023-03-01T11:09:49;12.05;;;6.10;;
38935;SDS011;66589;47.458;9.644;2023-03-01T11:12:15;16.50;;;6.82;;
38935;SDS011;66589;47.458;9.644;2023-03-01T11:14:52;14.23;;;7.10;;
38935;SDS011;66589;47.458;9.644;2023-03-01T11:17:25;11.00;;;6.45;;
38935;SDS011;66589;47.458;9.644;2023-03-01T11:20:07;14.02;;;7.18;;
38935;SDS011;66589;47.458;9.644;2023-03-01T11:22:49;14.25;;;6.60;;
38935;SDS011;66589;47.458;9.644;2023-03-01T11:25:19;14.43;;;6.93;;
38935;SDS011;66589;47.458;9.644;2023-03-01T11:27:49;12.85;;;6.53;;
38935;SDS011;66589;47.458;9.644;2023-03-01T11:30:20;13.07;;;6.80;;
38935;SDS011;66589;47.458;9.644;2023-03-01T11:35:16;13.63;;;7.97;;
38935;SDS011;66589;47.458;9.644;2023-03-01T11:40:24;13.38;;;6.70;;
38935;SDS011;66589;47.458;9.644;2023-03-01T11:56:55;12.63;;;6.38;;
38935;SDS011;66589;47.458;9.644;2023-03-01T12:10:35;13.80;;;7.20;;
38935;SDS011;66589;47.458;9.644;2023-03-01T12:49:22;16.08;;;7.85;;
38935;SDS011;66589;47.458;9.644;2023-03-01T12:51:54;15.35;;;7.80;;
38935;SDS011;66589;47.458;9.644;2023-03-01T12:54:37;14.60;;;7.60;;
38935;SDS011;66589;47.458;9.644;2023-03-01T12:57:09;13.93;;;7.00;;
38935;SDS011;66589;47.458;9.644;2023-03-01T13:07:36;17.27;;;7.22;;
38935;SDS011;66589;47.458;9.644;2023-03-01T13:10:33;13.98;;;7.18;;
38935;SDS011;66589;47.458;9.644;2023-03-01T13:13:11;14.38;;;7.35;;
38935;SDS011;66589;47.458;9.644;2023-03-01T13:15:38;15.85;;;7.50;;
38935;SDS011;66589;47.458;9.644;2023-03-01T13:26:02;13.80;;;7.32;;
38935;SDS011;66589;47.458;9.644;2023-03-01T13:33:46;14.32;;;7.45;;
38935;SDS011;66589;47.458;9.644;2023-03-01T13:46:43;14.20;;;6.90;;
38935;SDS011;66589;47.458;9.644;2023-03-01T13:49:11;13.98;;;6.90;;
38935;SDS011;66589;47.458;9.644;2023-03-01T13:51:42;15.02;;;7.35;;
38935;SDS011;66589;47.458;9.644;2023-03-01T13:54:12;14.82;;;7.38;;
38935;SDS011;66589;47.458;9.644;2023-03-01T13:56:40;13.95;;;7.32;;
38935;SDS011;66589;47.458;9.644;2023-03-01T13:59:20;13.43;;;7.07;;
38935;SDS011;66589;47.458;9.644;2023-03-01T14:01:53;16.02;;;8.38;;
38935;SDS011;66589;47.458;9.644;2023-03-01T14:04:24;14.98;;;7.63;;
38935;SDS011;66589;47.458;9.644;2023-03-01T14:09:59;18.55;;;8.23;;
38935;SDS011;66589;47.458;9.644;2023-03-01T14:17:55;13.82;;;7.43;;
38935;SDS011;66589;47.458;9.644;2023-03-01T14:20:43;14.95;;;7.50;;
38935;SDS011;66589;47.458;9.644;2023-03-01T14:23:18;16.27;;;7.15;;
38935;SDS011;66589;47.458;9.644;2023-03-01T14:25:50;16.05;;;7.32;;
38935;SDS011;66589;47.458;9.644;2023-03-01T14:28:19;14.63;;;7.35;;
38935;SDS011;66589;47.458;9.644;2023-03-01T14:31:29;14.30;;;7.05;;
38935;SDS011;66589;47.458;9.644;2023-03-01T14:33:56;15.18;;;7.63;;
38935;SDS011;66589;47.458;9.644;2023-03-01T14:36:29;15.95;;;7.38;;
38935;SDS011;66589;47.458;9.644;2023-03-01T14:38:56;14.23;;;6.93;;
38935;SDS011;66589;47.458;9.644;2023-03-01T14:41:29;16.42;;;7.60;;
38935;SDS011;66589;47.458;9.644;2023-03-01T14:44:01;15.13;;;7.55;;
38935;SDS011;66589;47.458;9.644;2023-03-01T14:46:36;16.42;;;7.90;;
38935;SDS011;66589;47.458;9.644;2023-03-01T14:51:41;14.90;;;7.35;;
38935;SDS011;66589;47.458;9.644;2023-03-01T14:56:50;12.68;;;6.90;;
38935;SDS011;66589;47.458;9.644;2023-03-01T14:59:23;15.40;;;7.22;;
38935;SDS011;66589;47.458;9.644;2023-03-01T15:01:50;14.10;;;6.63;;
38935;SDS011;66589;47.458;9.644;2023-03-01T15:04:18;19.63;;;7.30;;
38935;SDS011;66589;47.458;9.644;2023-03-01T15:06:46;15.55;;;6.97;;
38935;SDS011;66589;47.458;9.644;2023-03-01T15:09:15;16.58;;;7.90;;
38935;SDS011;66589;47.458;9.644;2023-03-01T15:11:42;15.65;;;7.25;;
38935;SDS011;66589;47.458;9.644;2023-03-01T15:14:25;16.70;;;7.72;;
38935;SDS011;66589;47.458;9.644;2023-03-01T15:17:30;15.35;;;7.50;;
38935;SDS011;66589;47.458;9.644;2023-03-01T15:19:58;15.68;;;7.35;;
38935;SDS011;66589;47.458;9.644;2023-03-01T15:22:25;15.07;;;7.25;;
38935;SDS011;66589;47.458;9.644;2023-03-01T15:24:52;19.00;;;7.70;;
38935;SDS011;66589;47.458;9.644;2023-03-01T15:27:20;15.15;;;7.22;;
38935;SDS011;66589;47.458;9.644;2023-03-01T15:29:52;19.00;;;8.23;;
38935;SDS011;66589;47.458;9.644;2023-03-01T15:32:31;17.83;;;8.20;;
38935;SDS011;66589;47.458;9.644;2023-03-01T15:34:59;19.92;;;8.25;;
38935;SDS011;66589;47.458;9.644;2023-03-01T15:37:46;18.05;;;7.85;;
38935;SDS011;66589;47.458;9.644;2023-03-01T15:42:49;18.38;;;8.18;;
38935;SDS011;66589;47.458;9.644;2023-03-01T15:47:46;15.10;;;7.57;;
38935;SDS011;66589;47.458;9.644;2023-03-01T15:50:33;18.08;;;8.07;;
38935;SDS011;66589;47.458;9.644;2023-03-01T15:53:01;17.20;;;7.80;;
38935;SDS011;66589;47.458;9.644;2023-03-01T15:55:31;18.02;;;8.05;;
38935;SDS011;66589;47.458;9.644;2023-03-01T16:00:27;15.57;;;7.57;;
38935;SDS011;66589;47.458;9.644;2023-03-01T16:02:53;16.48;;;7.95;;
38935;SDS011;66589;47.458;9.644;2023-03-01T16:05:21;16.58;;;7.75;;
38935;SDS011;66589;47.458;9.644;2023-03-01T16:07:49;15.63;;;7.65;;
38935;SDS011;66589;47.458;9.644;2023-03-01T16:10:15;15.38;;;7.20;;
38935;SDS011;66589;47.458;9.644;2023-03-01T16:12:41;16.25;;;7.57;;
38935;SDS011;66589;47.458;9.644;2023-03-01T16:15:28;14.27;;;7.22;;
38935;SDS011;66589;47.458;9.644;2023-03-01T16:17:54;17.17;;;7.40;;
38935;SDS011;66589;47.458;9.644;2023-03-01T16:20:20;15.70;;;7.75;;
38935;SDS011;66589;47.458;9.644;2023-03-01T16:22:47;15.98;;;7.22;;
38935;SDS011;66589;47.458;9.644;2023-03-01T16:25:14;21.13;;;8.48;;
38935;SDS011;66589;47.458;9.644;2023-03-01T16:27:42;17.88;;;8.38;;
38935;SDS011;66589;47.458;9.644;2023-03-01T16:30:08;16.48;;;7.75;;
38935;SDS011;66589;47.458;9.644;2023-03-01T16:32:38;21.50;;;9.00;;
38935;SDS011;66589;47.458;9.644;2023-03-01T16:35:05;20.23;;;9.13;;
38935;SDS011;66589;47.458;9.644;2023-03-01T16:37:32;16.95;;;7.55;;
38935;SDS011;66589;47.458;9.644;2023-03-01T16:39:59;17.55;;;8.02;;
38935;SDS011;66589;47.458;9.644;2023-03-01T16:42:25;16.98;;;8.02;;
38935;SDS011;66589;47.458;9.644;2023-03-01T16:44:54;14.43;;;7.47;;
38935;SDS011;66589;47.458;9.644;2023-03-01T16:47:21;16.92;;;7.75;;
38935;SDS011;66589;47.458;9.644;2023-03-01T16:49:47;16.65;;;7.00;;
38935;SDS011;66589;47.458;9.644;2023-03-01T16:52:16;15.95;;;7.65;;
38935;SDS011;66589;47.458;9.644;2023-03-01T16:54:41;18.20;;;8.15;;
38935;SDS011;66589;47.458;9.644;2023-03-01T16:57:07;17.92;;;7.47;;
38935;SDS011;66589;47.458;9.644;2023-03-01T16:59:33;20.38;;;8.45;;
38935;SDS011;66589;47.458;9.644;2023-03-01T17:01:58;21.00;;;7.38;;
38935;SDS011;66589;47.458;9.644;2023-03-01T17:04:24;15.38;;;7.68;;
38935;SDS011;66589;47.458;9.644;2023-03-01T17:06:50;15.73;;;7.50;;
38935;SDS011;66589;47.458;9.644;2023-03-01T17:09:15;16.58;;;7.97;;
38935;SDS011;66589;47.458;9.644;2023-03-01T17:11:42;19.10;;;8.05;;
38935;SDS011;66589;47.458;9.644;2023-03-01T17:14:08;19.35;;;8.40;;
38935;SDS011;66589;47.458;9.644;2023-03-01T17:16:34;16.15;;;7.35;;
38935;SDS011;66589;47.458;9.644;2023-03-01T17:19:00;15.50;;;7.40;;
38935;SDS011;66589;47.458;9.644;2023-03-01T17:21:26;19.65;;;8.35;;
38935;SDS011;66589;47.458;9.644;2023-03-01T17:23:54;18.67;;;7.82;;